MUGM/NBW METAR and TAF weather

Enter ICAO airport designator
Station Type Date Time Source
MUGM METAR 2020/09/19 01:51 UTC NOAA

MUGM 190151Z 34004KT 10SM FEW030 FEW280 28/24 A2990 RMK AO2 SLP125 T02830244 $


Station Type Date Time Source
MUGM Decoded METAR 2020/09/19 01:51 UTC NOAA

GUANTANAMO BAY, CUBA NAVAL, CU, Cuba (MUGM) 19-55N 075-12W 23M
Sep 18, 2020 - 09:51 PM EDT / 2020.09.19 0151 UTC
Wind: from the NNW (340 degrees) at 5 MPH (4 KT):0
Visibility: 10 mile(s):0
Sky conditions: mostly clear
Temperature: 82.9 F (28.3 C)
Dew Point: 75.9 F (24.4 C)
Relative Humidity: 79%
Pressure (altimeter): 29.9 in. Hg (1012 hPa)
ob: MUGM 190151Z 34004KT 10SM FEW030 FEW280 28/24 A2990 RMK AO2 SLP125 T02830244
cycle: 2

Station Type Date Time Source
MUGM TAF 2020/09/18 23:59 UTC NOAA

TAF MUGM 1823/1923 16007KT 9999 FEW030 FEW130 SCT280 QNH2985INS
BECMG 1823/1901 09006KT 9999 FEW030CB FEW280 QNH2986INS
BECMG 1902/1904 35006KT 9999 FEW030 FEW280 QNH2986INS
FM191300 VRB04KT 9999 FEW030 FEW280 QNH2990INS
FM191600 15008KT 9999 FEW030 FEW280 QNH2985INS
FM191800 13011KT 9999 VCSH FEW030CB SCT280 QNH2981INS T25/1911Z T32/1917Z FN20068

Example: see airport list